sensor_id;sensor_type;location;lat;lon;timestamp;temperature;humidity
13572;DHT22;6857;53.484;10.216;2023-09-30T00:01:41;13.10;99.90
13572;DHT22;6857;53.484;10.216;2023-09-30T00:04:06;13.30;99.90
13572;DHT22;6857;53.484;10.216;2023-09-30T00:06:32;13.30;99.90
13572;DHT22;6857;53.484;10.216;2023-09-30T00:08:58;13.30;99.90
13572;DHT22;6857;53.484;10.216;2023-09-30T00:11:23;13.30;99.90
13572;DHT22;6857;53.484;10.216;2023-09-30T00:13:49;13.30;99.90
13572;DHT22;6857;53.484;10.216;2023-09-30T00:16:15;13.30;99.90
13572;DHT22;6857;53.484;10.216;2023-09-30T00:18:43;13.40;99.90
13572;DHT22;6857;53.484;10.216;2023-09-30T00:21:09;13.30;99.90
13572;DHT22;6857;53.484;10.216;2023-09-30T00:23:34;13.20;99.90
13572;DHT22;6857;53.484;10.216;2023-09-30T00:26:00;13.20;99.90
13572;DHT22;6857;53.484;10.216;2023-09-30T00:28:26;13.10;99.90
13572;DHT22;6857;53.484;10.216;2023-09-30T00:40:35;13.10;99.90
13572;DHT22;6857;53.484;10.216;2023-09-30T00:47:56;13.10;99.90
13572;DHT22;6857;53.484;10.216;2023-09-30T00:52:50;12.90;99.90
13572;DHT22;6857;53.484;10.216;2023-09-30T00:55:17;13.30;99.90
13572;DHT22;6857;53.484;10.216;2023-09-30T00:57:44;13.10;99.90
13572;DHT22;6857;53.484;10.216;2023-09-30T01:00:11;13.10;99.90
13572;DHT22;6857;53.484;10.216;2023-09-30T01:02:39;13.00;99.90
13572;DHT22;6857;53.484;10.216;2023-09-30T01:05:06;13.10;99.90
13572;DHT22;6857;53.484;10.216;2023-09-30T01:07:33;13.10;99.90
13572;DHT22;6857;53.484;10.216;2023-09-30T01:15:02;13.10;99.90
13572;DHT22;6857;53.484;10.216;2023-09-30T01:19:59;13.10;99.90
13572;DHT22;6857;53.484;10.216;2023-09-30T01:22:27;13.10;99.90
13572;DHT22;6857;53.484;10.216;2023-09-30T01:24:57;12.70;99.90
13572;DHT22;6857;53.484;10.216;2023-09-30T01:27:23;13.10;99.90
13572;DHT22;6857;53.484;10.216;2023-09-30T01:29:48;13.10;99.90
13572;DHT22;6857;53.484;10.216;2023-09-30T01:32:14;12.90;99.90
13572;DHT22;6857;53.484;10.216;2023-09-30T01:34:40;13.10;99.90
13572;DHT22;6857;53.484;10.216;2023-09-30T01:37:06;12.70;99.90
13572;DHT22;6857;53.484;10.216;2023-09-30T01:39:32;13.20;99.90
13572;DHT22;6857;53.484;10.216;2023-09-30T01:41:58;13.20;99.90
13572;DHT22;6857;53.484;10.216;2023-09-30T01:44:23;12.90;99.90
13572;DHT22;6857;53.484;10.216;2023-09-30T01:46:49;13.10;99.90
13572;DHT22;6857;53.484;10.216;2023-09-30T01:49:14;12.90;99.90
13572;DHT22;6857;53.484;10.216;2023-09-30T01:51:40;12.90;99.90
13572;DHT22;6857;53.484;10.216;2023-09-30T01:54:05;12.90;99.90
13572;DHT22;6857;53.484;10.216;2023-09-30T01:56:31;12.90;99.90
13572;DHT22;6857;53.484;10.216;2023-09-30T01:58:57;12.90;99.90
13572;DHT22;6857;53.484;10.216;2023-09-30T02:01:22;12.90;99.90
13572;DHT22;6857;53.484;10.216;2023-09-30T02:03:48;12.90;99.90
13572;DHT22;6857;53.484;10.216;2023-09-30T02:06:13;13.10;99.90
13572;DHT22;6857;53.484;10.216;2023-09-30T02:08:39;12.90;99.90
13572;DHT22;6857;53.484;10.216;2023-09-30T02:11:04;12.80;99.90
13572;DHT22;6857;53.484;10.216;2023-09-30T02:13:33;12.90;99.90
13572;DHT22;6857;53.484;10.216;2023-09-30T02:15:59;12.20;99.90
13572;DHT22;6857;53.484;10.216;2023-09-30T02:18:26;12.30;99.90
13572;DHT22;6857;53.484;10.216;2023-09-30T02:20:54;12.60;99.90
13572;DHT22;6857;53.484;10.216;2023-09-30T02:23:22;12.60;99.90
13572;DHT22;6857;53.484;10.216;2023-09-30T02:25:50;12.60;99.90
13572;DHT22;6857;53.484;10.216;2023-09-30T02:28:17;12.60;99.90
13572;DHT22;6857;53.484;10.216;2023-09-30T02:30:45;12.60;99.90
13572;DHT22;6857;53.484;10.216;2023-09-30T02:33:13;12.50;99.90
13572;DHT22;6857;53.484;10.216;2023-09-30T02:35:43;12.60;99.90
13572;DHT22;6857;53.484;10.216;2023-09-30T02:38:09;12.60;99.90
13572;DHT22;6857;53.484;10.216;2023-09-30T02:40:36;12.50;99.90
13572;DHT22;6857;53.484;10.216;2023-09-30T02:43:05;12.50;99.90
13572;DHT22;6857;53.484;10.216;2023-09-30T02:48:00;12.40;99.90
13572;DHT22;6857;53.484;10.216;2023-09-30T02:52:56;12.40;99.90
13572;DHT22;6857;53.484;10.216;2023-09-30T02:55:22;12.40;99.90
13572;DHT22;6857;53.484;10.216;2023-09-30T02:57:47;12.40;99.90
13572;DHT22;6857;53.484;10.216;2023-09-30T03:00:15;12.40;99.90
13572;DHT22;6857;53.484;10.216;2023-09-30T03:02:54;12.40;99.90
